createdAt,value
2022-09-01T00:00:03.044Z,91.88
2022-09-01T00:02:31.213Z,92.27
2022-09-01T00:04:59.104Z,92.04
2022-09-01T00:07:30.529Z,92.39
2022-09-01T00:09:59.952Z,92.46
2022-09-01T00:12:29.285Z,92.61
2022-09-01T00:14:56.302Z,92.72
2022-09-01T00:17:23.463Z,92.76
2022-09-01T00:19:50.326Z,92.75
2022-09-01T00:22:19.372Z,93.32
2022-09-01T00:24:46.884Z,93.59
2022-09-01T00:27:13.722Z,94.19
2022-09-01T00:29:43.275Z,94.20
2022-09-01T00:32:11.769Z,94.08
2022-09-01T00:34:38.873Z,94.02
2022-09-01T00:37:05.937Z,93.04
2022-09-01T00:39:32.956Z,94.06
2022-09-01T00:41:59.870Z,95.10
2022-09-01T00:44:29.623Z,95.92
2022-09-01T00:46:59.767Z,97.13
2022-09-01T00:49:37.158Z,96.88
2022-09-01T00:52:12.663Z,96.51
2022-09-01T00:54:44.729Z,96.18
2022-09-01T00:57:13.287Z,96.55
2022-09-01T00:59:59.497Z,96.63
2022-09-01T01:02:27.271Z,96.77
2022-09-01T01:04:56.167Z,98.42
2022-09-01T01:07:23.525Z,98.07
2022-09-01T01:09:51.369Z,97.86
2022-09-01T01:12:18.865Z,97.86
2022-09-01T01:14:50.712Z,97.66
2022-09-01T01:17:20.652Z,97.35
2022-09-01T01:20:11.076Z,97.31
2022-09-01T01:23:17.961Z,96.91
2022-09-01T01:25:57.793Z,97.69
2022-09-01T01:28:32.415Z,98.22
2022-09-01T01:31:12.817Z,98.53
2022-09-01T01:33:44.078Z,98.16
2022-09-01T01:36:32.643Z,97.86
2022-09-01T01:39:07.661Z,98.59
2022-09-01T01:49:10.421Z,98.64
2022-09-01T01:51:37.317Z,98.23
2022-09-01T01:54:05.796Z,98.19
2022-09-01T01:56:38.098Z,97.77
2022-09-01T01:59:04.945Z,97.54
2022-09-01T02:01:35.189Z,97.84
2022-09-01T02:04:04.390Z,97.56
2022-09-01T02:06:34.780Z,97.20
2022-09-01T02:09:03.152Z,96.83
2022-09-01T02:11:37.568Z,96.79
2022-09-01T02:14:07.185Z,96.74
2022-09-01T02:16:35.800Z,96.54
2022-09-01T02:19:07.082Z,97.87
2022-09-01T02:21:35.047Z,98.02
2022-09-01T02:24:08.672Z,97.73
2022-09-01T02:26:40.726Z,97.68
2022-09-01T02:29:18.132Z,97.37
2022-09-01T02:31:48.887Z,97.44
2022-09-01T02:34:17.232Z,97.15
2022-09-01T02:36:48.320Z,96.73
2022-09-01T02:39:25.857Z,97.17
2022-09-01T02:41:53.930Z,97.40
2022-09-01T02:44:22.172Z,97.22
2022-09-01T02:46:50.525Z,97.30
2022-09-01T02:49:24.911Z,97.27
2022-09-01T02:51:58.120Z,96.88
2022-09-01T02:54:27.918Z,96.78
2022-09-01T02:56:54.991Z,96.03
2022-09-01T02:59:26.422Z,95.89
2022-09-01T03:01:54.684Z,95.84
2022-09-01T03:04:23.056Z,95.35
2022-09-01T03:06:54.934Z,94.61
2022-09-01T03:09:22.605Z,94.70
2022-09-01T03:11:52.473Z,94.94
2022-09-01T03:14:22.434Z,94.13
2022-09-01T03:16:49.553Z,93.65
2022-09-01T03:19:17.573Z,94.34
2022-09-01T03:21:46.209Z,94.33
2022-09-01T03:24:16.935Z,93.74
2022-09-01T03:26:46.061Z,93.67
2022-09-01T03:29:16.688Z,93.29
2022-09-01T03:31:43.645Z,93.29
2022-09-01T03:34:11.203Z,93.81
2022-09-01T03:36:38.067Z,94.31
2022-09-01T03:39:05.489Z,93.93
2022-09-01T03:41:32.655Z,93.31
2022-09-01T03:43:59.637Z,93.19
2022-09-01T03:46:35.723Z,93.05
2022-09-01T03:49:07.417Z,93.55
2022-09-01T03:51:35.088Z,93.05
2022-09-01T03:54:01.908Z,92.63
2022-09-01T03:56:29.907Z,92.05
2022-09-01T03:58:59.576Z,92.50
2022-09-01T04:01:31.655Z,92.79
2022-09-01T04:03:58.486Z,92.81
2022-09-01T04:06:26.134Z,93.14
2022-09-01T04:09:02.745Z,93.42
2022-09-01T04:11:32.545Z,93.09
2022-09-01T04:14:01.843Z,92.47
2022-09-01T04:16:51.264Z,91.89
2022-09-01T04:19:26.725Z,92.95
2022-09-01T04:22:00.425Z,93.32
2022-09-01T04:24:32.119Z,93.21
2022-09-01T04:27:02.447Z,92.93
2022-09-01T04:29:32.150Z,92.81
2022-09-01T04:32:12.997Z,93.29
2022-09-01T04:34:41.892Z,92.67
2022-09-01T04:37:21.870Z,92.93
2022-09-01T04:39:55.590Z,93.10
2022-09-01T04:42:29.242Z,92.86
2022-09-01T04:44:57.794Z,92.60
2022-09-01T04:47:35.455Z,92.04
2022-09-01T04:50:14.050Z,92.53
2022-09-01T04:52:42.872Z,92.15
2022-09-01T04:55:18.808Z,91.81
2022-09-01T04:57:49.611Z,91.92
2022-09-01T05:00:25.149Z,91.66
2022-09-01T05:03:02.803Z,91.36
2022-09-01T05:05:43.170Z,91.85
2022-09-01T05:08:23.554Z,91.91
2022-09-01T05:10:55.911Z,91.78
2022-09-01T05:13:24.216Z,91.77
2022-09-01T05:16:06.586Z,91.84
2022-09-01T05:18:34.104Z,92.21
2022-09-01T05:21:11.212Z,92.60
2022-09-01T05:23:40.601Z,93.36
2022-09-01T05:26:17.198Z,93.01
2022-09-01T05:28:49.613Z,92.18
2022-09-01T05:31:20.161Z,91.93
2022-09-01T05:33:50.118Z,91.66
2022-09-01T05:36:20.856Z,91.32
2022-09-01T05:38:49.157Z,91.98
2022-09-01T05:41:20.462Z,91.47
2022-09-01T05:43:55.101Z,91.29
2022-09-01T05:46:28.369Z,90.89
2022-09-01T05:48:56.345Z,91.40
2022-09-01T05:51:43.901Z,90.72
2022-09-01T05:54:12.199Z,89.79
2022-09-01T05:56:43.523Z,89.69
2022-09-01T05:59:28.341Z,91.01
2022-09-01T06:01:55.671Z,90.26
2022-09-01T06:04:25.776Z,89.78
2022-09-01T06:07:06.065Z,89.96
2022-09-01T06:09:41.675Z,89.92
2022-09-01T06:12:17.835Z,89.72
2022-09-01T06:14:49.660Z,89.55
2022-09-01T06:17:22.189Z,88.06
2022-09-01T06:19:49.166Z,88.09
2022-09-01T06:22:17.169Z,87.29
2022-09-01T06:24:45.561Z,87.29
2022-09-01T06:27:18.136Z,87.56
2022-09-01T06:29:45.579Z,86.22
2022-09-01T06:32:13.277Z,84.17
2022-09-01T06:34:42.835Z,83.84
2022-09-01T06:37:11.179Z,84.58
2022-09-01T06:39:38.782Z,83.27
2022-09-01T06:42:06.875Z,83.80
2022-09-01T06:44:34.166Z,83.47
2022-09-01T06:47:09.202Z,82.66
2022-09-01T06:49:36.840Z,83.39
2022-09-01T06:52:04.935Z,82.14
2022-09-01T06:54:34.298Z,81.20
2022-09-01T06:59:52.635Z,81.93
2022-09-01T07:02:26.585Z,81.28
2022-09-01T07:05:09.314Z,82.21
2022-09-01T07:13:38.796Z,77.75
2022-09-01T07:19:00.421Z,78.47
2022-09-01T07:21:42.371Z,79.16
2022-09-01T07:24:20.553Z,78.09
2022-09-01T07:26:51.065Z,77.92
2022-09-01T07:29:19.928Z,77.34
2022-09-01T07:31:50.278Z,76.27
2022-09-01T07:39:51.494Z,77.48
2022-09-01T07:45:26.570Z,76.28
2022-09-01T07:47:54.375Z,74.53
2022-09-01T07:50:38.651Z,74.57
2022-09-01T07:53:17.635Z,71.75
2022-09-01T07:55:46.968Z,73.36
2022-09-01T07:58:14.489Z,72.88
2022-09-01T08:00:46.393Z,71.41
2022-09-01T08:03:14.818Z,72.23
2022-09-01T08:05:53.897Z,71.64
2022-09-01T08:08:24.977Z,72.50
2022-09-01T08:11:04.292Z,71.99
2022-09-01T08:13:41.232Z,71.89
2022-09-01T08:16:16.255Z,72.15
2022-09-01T08:18:48.587Z,73.00
2022-09-01T08:21:19.805Z,70.08
2022-09-01T08:23:47.988Z,69.94
2022-09-01T08:26:17.884Z,70.64
2022-09-01T08:28:46.456Z,70.32
2022-09-01T08:31:17.676Z,69.93
2022-09-01T08:33:47.617Z,70.58
2022-09-01T08:36:20.210Z,69.54
2022-09-01T08:38:51.239Z,69.01
2022-09-01T08:41:37.815Z,69.02
2022-09-01T08:44:24.652Z,68.64
2022-09-01T08:46:59.754Z,68.17
2022-09-01T08:49:27.800Z,68.20
2022-09-01T08:52:03.425Z,67.70
2022-09-01T08:55:13.745Z,67.39
2022-09-01T08:57:45.748Z,67.97
2022-09-01T09:00:16.618Z,67.62
2022-09-01T09:03:08.805Z,66.83
2022-09-01T09:06:14.649Z,66.67
2022-09-01T09:08:57.919Z,66.73
2022-09-01T09:11:39.398Z,67.12
2022-09-01T09:14:33.270Z,65.66
2022-09-01T09:17:00.262Z,64.75
2022-09-01T09:19:35.690Z,66.01
2022-09-01T09:22:11.381Z,66.92
2022-09-01T09:25:08.325Z,66.50
2022-09-01T09:27:42.362Z,65.61
2022-09-01T09:30:27.449Z,64.69
2022-09-01T09:35:55.031Z,64.14
2022-09-01T09:38:29.456Z,64.25
2022-09-01T09:41:17.806Z,64.85
2022-09-01T09:43:59.003Z,64.81
2022-09-01T09:46:31.840Z,65.15
2022-09-01T09:49:36.607Z,64.09
2022-09-01T09:52:10.399Z,65.17
2022-09-01T09:55:18.685Z,65.13
2022-09-01T09:57:45.480Z,63.94
2022-09-01T10:00:34.316Z,63.26
2022-09-01T10:03:13.325Z,64.62
2022-09-01T10:05:53.349Z,63.15
2022-09-01T10:08:37.336Z,62.44
2022-09-01T10:11:08.043Z,63.08
2022-09-01T10:13:36.921Z,62.53
2022-09-01T10:16:11.318Z,63.49
2022-09-01T10:18:42.089Z,63.04
2022-09-01T10:21:15.955Z,62.54
2022-09-01T10:23:45.087Z,62.25
2022-09-01T10:26:27.377Z,62.34
2022-09-01T10:29:04.427Z,62.36
2022-09-01T10:31:32.784Z,61.89
2022-09-01T10:34:05.687Z,61.86
2022-09-01T10:36:37.409Z,60.97
2022-09-01T10:39:09.032Z,61.09
2022-09-01T10:42:08.334Z,61.43
2022-09-01T10:45:02.029Z,60.92
2022-09-01T10:47:38.008Z,60.12
2022-09-01T10:50:35.273Z,59.32
2022-09-01T10:53:05.930Z,59.88
2022-09-01T10:55:48.173Z,60.34
2022-09-01T11:01:40.523Z,60.45
2022-09-01T11:04:04.760Z,60.28
2022-09-01T11:07:16.852Z,59.64
2022-09-01T11:10:38.314Z,58.06
2022-09-01T11:13:49.958Z,57.40
2022-09-01T11:16:49.510Z,58.39
2022-09-01T11:19:39.841Z,56.71
2022-09-01T11:22:30.846Z,56.26
2022-09-01T11:25:46.194Z,56.28
2022-09-01T11:28:17.818Z,57.38
2022-09-01T11:30:53.009Z,57.32
2022-09-01T11:33:58.568Z,56.81
2022-09-01T11:36:47.275Z,55.25
2022-09-01T11:39:17.941Z,55.20
2022-09-01T11:42:10.936Z,55.03
2022-09-01T11:44:57.779Z,53.98
2022-09-01T11:47:39.213Z,53.54
2022-09-01T11:50:21.013Z,51.01
2022-09-01T11:53:05.235Z,50.50
2022-09-01T11:55:53.516Z,51.89
2022-09-01T11:58:33.444Z,52.21
2022-09-01T12:01:33.292Z,52.03
2022-09-01T12:04:24.025Z,52.25
2022-09-01T12:07:02.380Z,51.56
2022-09-01T12:09:37.263Z,50.52
2022-09-01T12:12:06.791Z,51.00
2022-09-01T12:14:55.056Z,51.81
2022-09-01T12:17:21.376Z,52.22
2022-09-01T12:19:48.145Z,52.25
2022-09-01T12:22:21.445Z,52.17
2022-09-01T12:24:53.713Z,51.26
2022-09-01T12:27:23.429Z,51.09
2022-09-01T12:29:51.720Z,51.28
2022-09-01T12:32:19.921Z,51.67
2022-09-01T12:35:01.508Z,51.76
2022-09-01T12:37:29.182Z,50.98
2022-09-01T12:39:58.933Z,51.07
2022-09-01T12:42:40.786Z,51.37
2022-09-01T12:45:10.987Z,51.05
2022-09-01T12:47:37.778Z,49.75
2022-09-01T12:50:09.382Z,51.24
2022-09-01T12:52:45.664Z,49.59
2022-09-01T12:58:22.499Z,50.15
2022-09-01T13:01:01.217Z,50.16
2022-09-01T13:03:29.616Z,51.17
2022-09-01T13:06:00.117Z,52.52
2022-09-01T13:08:31.220Z,52.76
2022-09-01T13:11:07.522Z,53.72
2022-09-01T13:13:35.677Z,52.94
2022-09-01T13:16:08.652Z,52.35
2022-09-01T13:19:10.323Z,51.37
2022-09-01T13:21:22.210Z,50.51
2022-09-01T13:23:50.763Z,50.41
2022-09-01T13:26:18.002Z,51.29
2022-09-01T13:28:46.108Z,51.46
2022-09-01T13:31:30.678Z,50.98
2022-09-01T13:34:22.167Z,49.96
2022-09-01T13:36:51.677Z,48.70
2022-09-01T13:39:21.023Z,47.42
2022-09-01T13:41:49.410Z,47.74
2022-09-01T13:44:18.205Z,47.07
2022-09-01T13:47:28.516Z,46.79
2022-09-01T13:52:20.282Z,45.63
2022-09-01T13:54:47.853Z,45.60
2022-09-01T13:57:16.688Z,44.81
2022-09-01T13:59:44.490Z,45.42
2022-09-01T14:02:11.638Z,45.12
2022-09-01T14:04:38.819Z,46.49
2022-09-01T14:07:05.890Z,47.03
2022-09-01T14:09:33.361Z,46.95
2022-09-01T14:12:00.159Z,45.53
2022-09-01T14:14:27.071Z,44.71
2022-09-01T14:16:54.193Z,45.44
2022-09-01T14:19:21.237Z,47.21
2022-09-01T14:21:49.736Z,47.29
2022-09-01T14:24:20.070Z,46.74
2022-09-01T14:26:48.150Z,45.52
2022-09-01T14:29:15.027Z,43.89
2022-09-01T14:31:43.584Z,44.57
2022-09-01T14:34:11.545Z,44.98
2022-09-01T14:36:39.331Z,44.33
2022-09-01T14:39:06.393Z,43.06
2022-09-01T14:41:33.494Z,42.62
2022-09-01T14:44:03.473Z,42.66
2022-09-01T14:46:34.317Z,41.93
2022-09-01T14:49:03.506Z,42.33
2022-09-01T14:54:18.789Z,42.22
2022-09-01T14:57:28.413Z,42.59
2022-09-01T14:59:33.165Z,41.03
2022-09-01T15:02:00.482Z,41.65
2022-09-01T15:04:28.116Z,41.01
2022-09-01T15:06:55.082Z,40.13
2022-09-01T15:09:24.713Z,40.14
2022-09-01T15:11:51.994Z,39.33
2022-09-01T15:14:18.802Z,40.71
2022-09-01T15:16:47.169Z,41.44
2022-09-01T15:19:14.601Z,43.04
2022-09-01T15:21:44.190Z,42.20
2022-09-01T15:24:11.481Z,39.83
2022-09-01T15:26:40.961Z,39.27
2022-09-01T15:29:13.304Z,40.81
2022-09-01T15:31:42.193Z,41.53
2022-09-01T15:34:09.754Z,41.18
2022-09-01T15:36:41.801Z,43.00
2022-09-01T15:39:10.611Z,44.01
2022-09-01T15:41:38.331Z,44.68
2022-09-01T15:44:08.234Z,46.30
2022-09-01T15:46:39.064Z,46.62
2022-09-01T15:49:09.930Z,47.62
2022-09-01T15:51:41.197Z,47.53
2022-09-01T15:54:18.975Z,48.37
2022-09-01T15:56:47.681Z,48.65
2022-09-01T15:59:15.457Z,48.30
2022-09-01T16:01:46.032Z,48.42
2022-09-01T16:04:19.829Z,49.22
2022-09-01T16:06:49.650Z,49.32
2022-09-01T16:09:18.508Z,49.14
2022-09-01T16:11:45.366Z,49.85
2022-09-01T16:14:12.439Z,48.23
2022-09-01T16:16:52.028Z,49.14
2022-09-01T16:19:32.025Z,48.86
2022-09-01T16:22:23.232Z,49.41
2022-09-01T16:24:54.317Z,49.87
2022-09-01T16:27:32.703Z,50.64
2022-09-01T16:30:08.176Z,51.59
2022-09-01T16:32:43.924Z,52.25
2022-09-01T16:35:10.783Z,52.49
2022-09-01T16:38:00.732Z,52.78
2022-09-01T16:40:45.334Z,52.73
2022-09-01T16:43:31.622Z,53.64
2022-09-01T16:46:11.640Z,53.47
2022-09-01T16:49:24.756Z,53.89
2022-09-01T16:52:19.334Z,54.22
2022-09-01T16:55:25.723Z,54.59
2022-09-01T16:58:22.658Z,54.19
2022-09-01T17:00:57.181Z,54.70
2022-09-01T17:03:42.447Z,54.87
2022-09-01T17:06:29.165Z,55.67
2022-09-01T17:09:22.426Z,55.67
2022-09-01T17:12:02.610Z,56.34
2022-09-01T17:14:44.252Z,56.57
2022-09-01T17:17:21.485Z,56.36
2022-09-01T17:19:52.689Z,56.86
2022-09-01T17:22:21.574Z,57.05
2022-09-01T17:24:52.600Z,56.89
2022-09-01T17:27:34.069Z,57.13
2022-09-01T17:30:02.309Z,57.80
2022-09-01T17:33:53.025Z,57.66
2022-09-01T17:36:50.053Z,58.40
2022-09-01T17:39:44.644Z,59.49
2022-09-01T17:42:26.544Z,60.15
2022-09-01T17:45:15.265Z,60.49
2022-09-01T17:48:10.705Z,61.91
2022-09-01T17:51:05.386Z,61.47
2022-09-01T17:54:05.857Z,63.56
2022-09-01T17:56:48.599Z,63.31
2022-09-01T17:59:28.758Z,64.17
2022-09-01T18:02:29.566Z,64.74
2022-09-01T18:05:13.458Z,65.25
2022-09-01T18:07:53.405Z,65.97
2022-09-01T18:10:54.348Z,66.22
2022-09-01T18:13:51.999Z,66.81
2022-09-01T18:16:31.058Z,67.07
2022-09-01T18:19:05.720Z,67.15
2022-09-01T18:21:38.078Z,67.62
2022-09-01T18:24:23.137Z,68.22
2022-09-01T18:26:51.641Z,68.03
2022-09-01T18:29:19.178Z,68.63
2022-09-01T18:32:20.122Z,69.34
2022-09-01T18:35:08.131Z,69.56
2022-09-01T18:37:46.893Z,69.82
2022-09-01T18:40:29.356Z,70.08
2022-09-01T18:43:37.805Z,70.66
2022-09-01T18:46:33.228Z,71.76
2022-09-01T18:49:37.356Z,72.36
2022-09-01T18:52:25.564Z,73.50
2022-09-01T18:55:10.448Z,74.86
2022-09-01T18:57:40.877Z,74.81
2022-09-01T19:00:20.454Z,74.65
2022-09-01T19:02:59.521Z,74.85
2022-09-01T19:05:38.452Z,75.10
2022-09-01T19:08:34.672Z,75.44
2022-09-01T19:11:25.915Z,75.71
2022-09-01T19:14:12.468Z,75.78
2022-09-01T19:17:16.755Z,76.09
2022-09-01T19:20:00.938Z,76.92
2022-09-01T19:22:56.868Z,77.36
2022-09-01T19:25:34.406Z,77.24
2022-09-01T19:28:11.769Z,77.69
2022-09-01T19:31:10.301Z,77.71
2022-09-01T19:33:52.505Z,78.58
2022-09-01T19:36:40.338Z,78.40
2022-09-01T19:39:19.452Z,78.07
2022-09-01T19:42:13.698Z,78.40
2022-09-01T19:45:06.511Z,78.27
2022-09-01T19:47:58.980Z,78.99
2022-09-01T19:50:41.941Z,79.34
2022-09-01T19:53:27.933Z,79.34
2022-09-01T19:56:18.357Z,80.09
2022-09-01T19:59:02.132Z,80.17
2022-09-01T20:02:00.401Z,80.37
2022-09-01T20:04:53.619Z,80.76
2022-09-01T20:07:55.905Z,80.56
2022-09-01T20:10:32.057Z,80.33
2022-09-01T20:13:27.354Z,80.78
2022-09-01T20:16:17.411Z,81.37
2022-09-01T20:18:55.361Z,80.96
2022-09-01T20:21:22.372Z,81.04
2022-09-01T20:24:07.713Z,81.25
2022-09-01T20:26:48.194Z,81.58
2022-09-01T20:29:28.609Z,81.90
2022-09-01T20:31:59.037Z,82.82
2022-09-01T20:34:49.129Z,83.05
2022-09-01T20:37:28.017Z,82.99
2022-09-01T20:40:06.779Z,82.66
2022-09-01T20:43:02.162Z,82.38
2022-09-01T20:45:30.425Z,83.84
2022-09-01T20:48:23.397Z,84.01
2022-09-01T20:51:38.593Z,84.68
2022-09-01T20:54:54.098Z,84.63
2022-09-01T20:58:17.190Z,83.74
2022-09-01T21:00:55.269Z,83.56
2022-09-01T21:03:35.462Z,83.27
2022-09-01T21:06:27.020Z,83.62
2022-09-01T21:09:17.040Z,83.27
2022-09-01T21:11:54.937Z,83.24
2022-09-01T21:14:40.030Z,83.43
2022-09-01T21:17:32.358Z,83.47
2022-09-01T21:20:26.336Z,84.03
2022-09-01T21:22:55.686Z,83.72
2022-09-01T21:25:22.861Z,84.57
2022-09-01T21:27:57.500Z,84.11
2022-09-01T21:30:25.959Z,84.53
2022-09-01T21:32:54.035Z,84.83
2022-09-01T21:35:22.142Z,84.42
2022-09-01T21:37:50.218Z,85.11
2022-09-01T21:40:21.326Z,84.80
2022-09-01T21:43:05.901Z,84.84
2022-09-01T21:45:35.850Z,84.91
2022-09-01T21:48:03.522Z,84.82
2022-09-01T21:50:30.445Z,84.67
2022-09-01T21:52:59.317Z,85.07
2022-09-01T21:55:27.013Z,84.91
2022-09-01T21:57:54.725Z,84.84
2022-09-01T22:00:27.615Z,85.21
2022-09-01T22:02:57.698Z,85.08
2022-09-01T22:05:26.274Z,84.97
2022-09-01T22:07:54.517Z,85.05
2022-09-01T22:10:26.503Z,85.50
2022-09-01T22:13:03.757Z,85.41
2022-09-01T22:15:31.691Z,85.35
2022-09-01T22:17:59.255Z,85.47
2022-09-01T22:20:28.589Z,85.32
2022-09-01T22:23:02.054Z,85.16
2022-09-01T22:25:30.524Z,84.83
2022-09-01T22:28:04.634Z,85.49
2022-09-01T22:30:32.104Z,85.62
2022-09-01T22:32:59.897Z,85.68
2022-09-01T22:35:27.872Z,85.91
2022-09-01T22:37:54.834Z,85.49
2022-09-01T22:40:21.736Z,86.05
2022-09-01T22:42:48.534Z,85.53
2022-09-01T22:45:17.302Z,85.61
2022-09-01T22:47:44.885Z,85.78
2022-09-01T22:50:12.580Z,86.56
2022-09-01T22:52:48.653Z,86.85
2022-09-01T22:55:15.429Z,86.47
2022-09-01T22:57:42.266Z,86.18
2022-09-01T23:00:10.802Z,86.07
2022-09-01T23:02:38.004Z,86.13
2022-09-01T23:05:06.015Z,85.80
2022-09-01T23:07:39.574Z,85.92
2022-09-01T23:10:08.739Z,85.50
2022-09-01T23:12:35.529Z,85.69
2022-09-01T23:15:02.337Z,85.95
2022-09-01T23:17:29.124Z,85.72
2022-09-01T23:19:56.961Z,86.08
2022-09-01T23:22:23.738Z,86.05
2022-09-01T23:24:50.478Z,86.03
2022-09-01T23:27:17.724Z,86.04
2022-09-01T23:29:44.506Z,85.69
2022-09-01T23:32:11.382Z,85.75
2022-09-01T23:34:39.135Z,85.80
2022-09-01T23:37:05.985Z,85.68
2022-09-01T23:39:32.778Z,86.48
2022-09-01T23:41:59.633Z,86.11
2022-09-01T23:44:26.533Z,86.33
2022-09-01T23:46:53.320Z,86.27
2022-09-01T23:49:20.148Z,86.62
2022-09-01T23:51:48.330Z,86.82
2022-09-01T23:54:15.775Z,86.92
2022-09-01T23:56:42.556Z,87.24
2022-09-01T23:59:09.595Z,87.01
